Time;durP1;ratioP1;P1;durP2;ratioP2;P2;SDS_P1;SDS_P2;PMS_P1;PMS_P2;Temp;Humidity;BMP_temperature;BMP_pressure;BME280_temperature;BME280_humidity;BME280_pressure;Samples;Min_cycle;Max_cycle;Signal;HPM_P1;HPM_P2
2022/12/21 00:01:25;;;;;;;32.22;19.17;;;8.10;95.50;;;;;;5035892;28;20064;-48
2022/12/21 00:04:00;;;;;;;32.78;19.55;;;8.10;95.50;;;;;;5036174;28;20040;-47
2022/12/21 00:06:29;;;;;;;33.92;19.35;;;8.10;95.50;;;;;;5052821;28;20065;-50
2022/12/21 00:08:59;;;;;;;33.37;18.73;;;8.00;95.50;;;;;;5042750;28;20026;-48
2022/12/21 00:11:27;;;;;;;;;;;8.00;95.40;;;;;;5036483;28;20331;-48
2022/12/21 00:13:59;;;;;;;32.15;18.85;;;8.00;95.50;;;;;;5035939;28;20330;-50
2022/12/21 00:16:29;;;;;;;42.35;19.95;;;7.90;95.50;;;;;;5035959;28;20021;-48
2022/12/21 00:18:57;;;;;;;32.35;17.95;;;7.90;95.40;;;;;;5035746;28;20491;-50
2022/12/21 00:21:26;;;;;;;30.83;17.67;;;7.90;95.40;;;;;;5042897;28;20044;-51
2022/12/21 00:23:58;;;;;;;26.50;16.73;;;7.90;95.40;;;;;;5055872;28;20029;-48
2022/12/21 00:26:33;;;;;;;30.63;17.63;;;7.90;95.50;;;;;;5055785;28;20021;-48
2022/12/21 00:29:01;;;;;;;27.85;16.35;;;7.90;95.40;;;;;;5040220;28;20029;-51
2022/12/21 00:31:31;;;;;;;32.50;17.27;;;7.90;95.50;;;;;;5035745;28;20032;-51
2022/12/21 00:33:58;;;;;;;27.95;16.75;;;7.80;95.50;;;;;;5053247;28;20036;-49
2022/12/21 00:36:27;;;;;;;30.60;17.73;;;7.90;95.50;;;;;;5054191;28;20480;-48
2022/12/21 00:38:56;;;;;;;29.05;16.52;;;7.90;95.50;;;;;;5055699;28;20048;-51
2022/12/21 00:41:27;;;;;;;33.75;17.90;;;7.90;95.50;;;;;;5042602;28;20048;-48
2022/12/21 00:43:55;;;;;;;29.13;15.02;;;7.80;95.40;;;;;;5034672;28;20061;-48
2022/12/21 00:46:26;;;;;;;32.42;16.70;;;7.80;95.40;;;;;;5034618;28;20092;-49
2022/12/21 00:48:56;;;;;;;31.13;16.88;;;7.80;95.50;;;;;;5035516;28;20033;-51
2022/12/21 00:51:24;;;;;;;35.67;17.02;;;7.80;95.40;;;;;;5055323;28;20075;-48
2022/12/21 00:53:55;;;;;;;27.42;15.60;;;7.80;95.40;;;;;;5047942;28;20022;-51
2022/12/21 00:56:23;;;;;;;30.02;15.35;;;7.80;95.40;;;;;;5035302;28;20037;-48
2022/12/21 00:58:51;;;;;;;26.75;14.85;;;7.80;95.40;;;;;;5035318;28;20056;-48
2022/12/21 01:01:32;;;;;;;31.20;16.13;;;7.80;95.40;;;;;;5034095;28;20049;-52
2022/12/21 01:03:59;;;;;;;31.42;16.83;;;7.70;95.40;;;;;;5034050;28;20143;-51
2022/12/21 01:06:34;;;;;;;28.35;16.52;;;7.70;95.30;;;;;;5035237;28;20044;-49
2022/12/21 01:09:02;;;;;;;30.02;15.27;;;7.70;95.30;;;;;;5050220;28;20029;-49
2022/12/21 01:11:30;;;;;;;31.42;16.38;;;7.70;95.40;;;;;;5054863;28;20446;-49
2022/12/21 01:13:59;;;;;;;30.60;16.73;;;7.60;95.30;;;;;;5036917;28;20048;-48
2022/12/21 01:16:30;;;;;;;34.17;18.13;;;7.60;95.40;;;;;;5033799;28;20026;-48
2022/12/21 01:19:02;;;;;;;28.45;18.45;;;7.60;95.30;;;;;;5034690;28;20025;-47
2022/12/21 01:21:33;;;;;;;33.42;16.33;;;7.60;95.40;;;;;;5032284;28;20378;-48
2022/12/21 01:23:59;;;;;;;34.28;18.65;;;7.50;95.30;;;;;;5034403;28;20041;-52
2022/12/21 01:26:27;;;;;;;30.90;17.48;;;7.50;95.30;;;;;;5051442;28;20044;-48
2022/12/21 01:28:55;;;;;;;33.60;18.85;;;7.50;95.30;;;;;;5053220;28;20041;-49
2022/12/21 01:31:22;;;;;;;33.30;18.73;;;7.50;95.30;;;;;;5039333;28;20397;-48
2022/12/21 01:33:48;;;;;;;32.97;17.45;;;7.40;95.30;;;;;;5034696;28;20037;-49
2022/12/21 01:36:17;;;;;;;31.92;17.65;;;7.40;95.30;;;;;;5034400;28;20036;-52
2022/12/21 01:38:44;;;;;;;31.70;17.52;;;7.30;95.20;;;;;;5034393;28;20088;-50
2022/12/21 01:41:18;;;;;;;33.45;17.33;;;7.30;95.20;;;;;;5031826;28;20037;-50
2022/12/21 01:43:52;;;;;;;29.48;16.90;;;7.20;95.10;;;;;;5034075;28;20121;-51
2022/12/21 01:46:33;;;;;;;33.67;17.98;;;7.10;95.10;;;;;;5034031;28;20029;-52
2022/12/21 01:49:21;;;;;;;26.42;16.23;;;7.00;95.10;;;;;;5047191;28;20037;-49
2022/12/21 01:51:56;;;;;;;25.52;15.25;;;6.90;95.10;;;;;;5052837;28;20031;-48
2022/12/21 01:54:38;;;;;;;24.63;16.00;;;6.90;95.00;;;;;;5054177;28;20411;-50
2022/12/21 01:57:09;;;;;;;25.13;14.45;;;6.80;95.00;;;;;;5032972;28;20030;-53
2022/12/21 01:59:45;;;;;;;26.67;16.05;;;6.80;95.00;;;;;;5033762;28;20030;-52
2022/12/21 02:02:22;;;;;;;27.23;16.27;;;6.70;94.90;;;;;;5033843;28;20052;-53
2022/12/21 02:04:51;;;;;;;30.88;18.42;;;6.70;95.00;;;;;;5038875;28;20462;-52
2022/12/21 02:07:24;;;;;;;35.47;19.55;;;6.60;95.00;;;;;;5052777;28;20029;-50
2022/12/21 02:09:55;;;;;;;36.28;17.95;;;6.60;95.00;;;;;;5053989;28;20171;-51
2022/12/21 02:12:24;;;;;;;28.95;16.65;;;6.50;95.00;;;;;;5032581;28;20033;-51
2022/12/21 02:14:51;;;;;;;34.55;17.10;;;6.50;95.00;;;;;;5033764;28;20087;-52
2022/12/21 02:17:40;;;;;;;29.77;17.52;;;6.50;94.90;;;;;;5033711;28;20032;-53
2022/12/21 02:20:27;;;;;;;30.40;15.27;;;6.40;94.90;;;;;;5053365;28;20036;-49
2022/12/21 02:23:30;;;;;;;26.45;15.65;;;6.30;94.90;;;;;;5053805;28;20090;-52
2022/12/21 02:26:42;;;;;;;24.50;15.35;;;6.30;94.90;;;;;;5043288;28;20426;-53
2022/12/21 02:29:45;;;;;;;24.10;14.00;;;6.20;94.80;;;;;;5032734;28;20048;-49
2022/12/21 02:32:26;;;;;;;24.88;13.75;;;6.10;94.80;;;;;;5012978;28;20331;-55
2022/12/21 02:35:20;;;;;;;26.48;13.82;;;6.00;94.70;;;;;;5013935;28;20018;-50
2022/12/21 02:38:22;;;;;;;31.85;13.57;;;6.10;94.80;;;;;;5013308;28;20018;-49
2022/12/21 02:41:17;;;;;;;24.40;13.25;;;6.00;94.80;;;;;;5042358;28;20060;-51
2022/12/21 02:44:13;;;;;;;27.52;13.70;;;6.00;94.90;;;;;;5052566;28;20052;-54
2022/12/21 02:47:08;;;;;;;49.55;15.23;;;6.00;94.90;;;;;;5052208;28;20084;-49
2022/12/21 02:50:02;;;;;;;29.35;11.65;;;6.00;94.90;;;;;;5012276;28;20120;-54
2022/12/21 02:52:49;;;;;;;23.45;13.50;;;6.10;94.90;;;;;;5012263;28;20057;-49
2022/12/21 02:55:16;;;;;;;30.75;12.57;;;6.00;94.90;;;;;;5013659;28;20024;-56
2022/12/21 02:57:44;;;;;;;62.45;13.57;;;6.00;94.80;;;;;;5042049;28;20454;-56
2022/12/21 03:00:17;;;;;;;20.63;11.13;;;6.00;94.90;;;;;;5052891;28;20021;-54
2022/12/21 03:06:10;;;;;;;30.60;12.25;;;6.00;94.80;;;;;;5032815;28;20115;-54
2022/12/21 03:09:17;;;;;;;23.10;12.77;;;5.90;94.80;;;;;;5032988;28;20087;-52
2022/12/21 03:12:20;;;;;;;21.08;10.48;;;5.90;94.80;;;;;;5053091;28;20366;-52
2022/12/21 03:15:19;;;;;;;50.70;11.65;;;5.90;94.80;;;;;;5052780;28;20074;-53
2022/12/21 03:18:05;;;;;;;56.85;12.55;;;5.80;94.80;;;;;;5049602;28;20017;-52
2022/12/21 03:20:36;;;;;;;17.20;10.52;;;5.80;94.80;;;;;;5031930;28;20037;-55
2022/12/21 03:23:17;;;;;;;14.32;8.75;;;5.70;94.80;;;;;;5032932;28;20509;-52
2022/12/21 03:26:08;;;;;;;18.33;9.18;;;5.70;94.80;;;;;;5032985;28;20390;-55
2022/12/21 03:28:38;;;;;;;37.58;10.05;;;5.70;94.80;;;;;;5011938;28;20045;-54
2022/12/21 03:31:13;;;;;;;17.42;8.50;;;5.70;94.80;;;;;;5025789;28;20030;-55
2022/12/21 03:33:56;;;;;;;14.63;8.73;;;5.60;94.80;;;;;;5031476;28;20056;-54
2022/12/21 03:36:46;;;;;;;71.00;12.23;;;5.60;94.80;;;;;;5037052;28;20021;-57
2022/12/21 03:39:15;;;;;;;14.73;9.30;;;5.60;94.70;;;;;;5052484;28;20041;-53
2022/12/21 03:41:53;;;;;;;46.15;11.85;;;5.60;94.80;;;;;;5052564;28;20044;-53
2022/12/21 03:44:27;;;;;;;15.68;10.07;;;5.60;94.80;;;;;;5052387;28;20037;-54
2022/12/21 03:47:04;;;;;;;67.72;12.95;;;5.60;94.80;;;;;;5051059;28;20466;-57
2022/12/21 03:49:50;;;;;;;38.60;11.60;;;5.70;94.80;;;;;;5051175;28;20039;-55
2022/12/21 03:52:22;;;;;;;23.35;10.05;;;5.60;94.80;;;;;;5012921;28;20029;-52
2022/12/21 03:55:08;;;;;;;34.65;11.98;;;5.70;94.90;;;;;;5012948;28;20026;-55
2022/12/21 03:57:36;;;;;;;60.75;12.35;;;5.70;94.90;;;;;;5023592;28;20111;-56
2022/12/21 04:00:06;;;;;;;64.30;12.15;;;5.70;94.90;;;;;;5032502;28;20423;-57
2022/12/21 04:02:55;;;;;;;18.95;10.70;;;5.70;94.90;;;;;;5032436;28;20053;-54
2022/12/21 04:05:33;;;;;;;20.20;10.63;;;5.80;94.90;;;;;;5035619;28;20033;-54
2022/12/21 04:08:04;;;;;;;16.30;10.40;;;5.80;94.90;;;;;;5035181;28;20035;-57
2022/12/21 04:10:33;;;;;;;17.10;10.20;;;5.80;94.90;;;;;;5037756;28;20808;-56
2022/12/21 04:13:02;;;;;;;25.20;10.75;;;5.90;95.00;;;;;;5056236;28;20029;-54
2022/12/21 04:16:03;;;;;;;15.63;9.20;;;5.80;94.90;;;;;;5055837;28;20029;-57
2022/12/21 04:19:57;;;;;;;22.33;11.45;;;5.80;94.90;;;;;;5055821;28;20112;-57
2022/12/21 04:21:03;;;;;;;64.13;12.18;;;5.80;94.90;;;;;;5055669;28;20041;-57
2022/12/21 04:29:05;;;;;;;16.05;9.05;;;5.80;95.00;;;;;;5035000;28;20091;-56
2022/12/21 04:31:32;;;;;;;49.75;12.60;;;5.80;95.00;;;;;;5035694;28;20362;-56
2022/12/21 04:33:59;;;;;;;19.52;8.95;;;5.80;95.00;;;;;;5035242;28;20112;-58
2022/12/21 04:39:11;;;;;;;16.27;10.18;;;5.80;95.00;;;;;;5035580;28;20095;-57
2022/12/21 04:41:38;;;;;;;49.45;12.10;;;5.80;95.00;;;;;;5036921;28;20033;-57
2022/12/21 04:44:04;;;;;;;24.48;10.52;;;5.80;95.00;;;;;;5055536;28;20366;-57
2022/12/21 04:46:31;;;;;;;35.22;10.07;;;5.80;95.00;;;;;;5055354;28;20025;-57
2022/12/21 04:48:57;;;;;;;25.17;10.07;;;5.80;95.00;;;;;;5055312;28;20090;-57
2022/12/21 04:51:25;;;;;;;46.53;10.98;;;5.80;95.00;;;;;;5048925;28;20084;-52
2022/12/21 04:53:52;;;;;;;24.30;11.60;;;5.80;95.10;;;;;;5035387;28;20035;-57
2022/12/21 04:56:19;;;;;;;24.80;10.63;;;5.80;95.00;;;;;;5035433;28;20082;-55
2022/12/21 04:58:49;;;;;;;40.97;10.85;;;5.80;95.00;;;;;;5035442;28;20021;-58
2022/12/21 05:01:19;;;;;;;39.72;11.63;;;5.70;95.00;;;;;;5035172;28;20073;-57
2022/12/21 05:03:45;;;;;;;;;;;5.70;95.00;;;;;;5035647;28;20025;-56
2022/12/21 05:06:13;;;;;;;19.67;10.48;;;5.70;95.10;;;;;;5035160;28;19917;-55
2022/12/21 05:08:41;;;;;;;17.05;9.30;;;5.80;95.10;;;;;;5035086;28;20104;-55
2022/12/21 05:11:15;;;;;;;32.45;10.23;;;5.80;95.10;;;;;;5035011;28;20017;-57
2022/12/21 05:13:41;;;;;;;20.75;10.07;;;5.80;95.10;;;;;;5036325;28;20631;-57
2022/12/21 05:16:11;;;;;;;33.47;10.75;;;5.70;95.10;;;;;;5053266;28;20036;-55
2022/12/21 05:18:38;;;;;;;18.85;9.27;;;5.70;95.00;;;;;;5051246;28;20120;-56
2022/12/21 05:21:05;;;;;;;18.65;9.88;;;5.70;95.10;;;;;;5033849;28;20120;-58
2022/12/21 05:23:33;;;;;;;20.42;9.38;;;5.70;95.10;;;;;;5034303;28;20026;-58
2022/12/21 05:26:01;;;;;;;29.33;8.68;;;5.70;95.00;;;;;;5033958;28;20040;-58
2022/12/21 05:28:31;;;;;;;30.15;10.30;;;5.70;95.00;;;;;;5033515;28;20105;-57
2022/12/21 05:30:58;;;;;;;15.90;9.55;;;5.70;95.10;;;;;;5048123;28;20029;-55
2022/12/21 05:33:25;;;;;;;15.82;8.18;;;5.70;95.20;;;;;;5054588;28;20096;-54
2022/12/21 05:35:51;;;;;;;14.38;8.40;;;5.70;95.20;;;;;;5054958;28;20028;-57
2022/12/21 05:38:18;;;;;;;13.07;8.20;;;5.70;95.20;;;;;;5051524;28;20029;-58
2022/12/21 05:40:49;;;;;;;25.58;10.82;;;5.70;95.20;;;;;;5034713;28;20029;-57
2022/12/21 05:43:16;;;;;;;24.67;9.73;;;5.70;95.10;;;;;;5045140;28;20346;-58
2022/12/21 05:45:43;;;;;;;24.23;9.40;;;5.70;95.20;;;;;;5054228;28;20036;-58
2022/12/21 05:48:10;;;;;;;49.28;10.90;;;5.80;95.10;;;;;;5053211;28;20057;-57
2022/12/21 05:50:43;;;;;;;69.15;10.07;;;5.80;95.20;;;;;;5054128;28;20104;-57
2022/12/21 05:53:10;;;;;;;36.03;9.40;;;5.80;95.20;;;;;;5052334;28;20347;-53
2022/12/21 05:55:37;;;;;;;14.95;9.85;;;5.70;95.20;;;;;;5054202;28;20024;-57
2022/12/21 05:58:04;;;;;;;20.95;9.63;;;5.80;95.20;;;;;;5052712;28;20419;-57
2022/12/21 06:00:31;;;;;;;26.58;9.20;;;5.80;95.20;;;;;;5052962;28;20430;-56
2022/12/21 06:02:58;;;;;;;23.80;11.13;;;5.80;95.20;;;;;;5053611;28;20040;-56
2022/12/21 06:05:24;;;;;;;20.13;10.45;;;5.80;95.30;;;;;;5051557;28;20476;-57
2022/12/21 06:07:51;;;;;;;24.58;9.70;;;5.80;95.20;;;;;;5053063;28;20178;-58
2022/12/21 06:10:23;;;;;;;37.22;11.07;;;5.80;95.30;;;;;;5037150;28;20048;-57
2022/12/21 06:12:50;;;;;;;33.40;10.57;;;5.80;95.20;;;;;;5032928;28;20026;-58
2022/12/21 06:15:17;;;;;;;26.98;10.90;;;5.90;95.30;;;;;;5034082;28;20072;-57
2022/12/21 06:17:43;;;;;;;21.27;9.60;;;5.80;95.30;;;;;;5052540;28;20081;-56
2022/12/21 06:20:10;;;;;;;20.17;9.07;;;5.90;95.30;;;;;;5053335;28;20051;-57
2022/12/21 06:22:35;;;;;;;53.90;12.77;;;5.80;95.30;;;;;;5051115;28;20032;-57
2022/12/21 06:25:03;;;;;;;27.05;11.02;;;5.80;95.30;;;;;;5053902;28;20035;-58
2022/12/21 06:27:30;;;;;;;19.55;10.85;;;5.90;95.30;;;;;;5052725;28;20346;-58
2022/12/21 06:29:57;;;;;;;32.58;12.40;;;5.80;95.30;;;;;;5048634;28;20028;-58
2022/12/21 06:32:22;;;;;;;30.30;12.30;;;5.80;95.30;;;;;;5033573;28;20037;-57
2022/12/21 06:34:48;;;;;;;23.20;10.52;;;5.80;95.30;;;;;;5032689;28;20085;-55
2022/12/21 06:37:15;;;;;;;38.78;11.25;;;5.80;95.30;;;;;;5032229;28;20384;-58
2022/12/21 06:39:42;;;;;;;26.88;10.80;;;5.80;95.30;;;;;;5033204;28;20030;-58
2022/12/21 06:42:08;;;;;;;20.65;10.32;;;5.80;95.30;;;;;;5033052;28;20434;-58
2022/12/21 06:44:35;;;;;;;32.67;10.68;;;5.80;95.30;;;;;;5033468;28;20057;-58
2022/12/21 06:47:01;;;;;;;18.77;9.73;;;5.70;95.30;;;;;;5033120;28;20039;-58
2022/12/21 06:49:28;;;;;;;20.13;9.32;;;5.80;95.30;;;;;;5049587;28;20029;-58
2022/12/21 06:51:54;;;;;;;21.58;9.40;;;5.70;95.30;;;;;;5053313;28;20033;-58
2022/12/21 06:54:21;;;;;;;52.88;9.10;;;5.70;95.20;;;;;;5053354;28;20035;-58
2022/12/21 06:56:48;;;;;;;23.88;9.38;;;5.70;95.20;;;;;;5041626;28;20087;-57
2022/12/21 06:59:17;;;;;;;29.70;8.63;;;5.60;95.10;;;;;;5033214;28;20418;-58
2022/12/21 07:01:43;;;;;;;19.20;8.15;;;5.60;95.20;;;;;;5033062;28;20069;-57
2022/12/21 07:04:10;;;;;;;23.95;9.07;;;5.60;95.20;;;;;;5032181;28;20034;-57
2022/12/21 07:06:37;;;;;;;22.35;7.32;;;5.50;95.10;;;;;;5033235;28;20040;-56
2022/12/21 07:09:04;;;;;;;57.45;9.95;;;5.40;95.20;;;;;;5032882;28;20091;-58
2022/12/21 07:11:31;;;;;;;18.33;7.78;;;5.40;95.20;;;;;;5031948;28;20018;-58
2022/12/21 07:13:56;;;;;;;46.45;8.82;;;5.40;95.20;;;;;;5046335;28;20119;-56
2022/12/21 07:16:23;;;;;;;14.52;7.30;;;5.40;95.20;;;;;;5051672;28;20096;-57
2022/12/21 07:18:50;;;;;;;32.30;10.00;;;5.40;95.10;;;;;;5052894;28;20037;-57
2022/12/21 07:21:19;;;;;;;15.68;7.65;;;5.30;95.10;;;;;;5053085;28;20339;-55
2022/12/21 07:23:46;;;;;;;13.82;7.88;;;5.30;95.10;;;;;;5052913;28;20036;-57
2022/12/21 07:26:15;;;;;;;45.40;10.38;;;5.30;95.10;;;;;;5035507;28;20498;-57
2022/12/21 07:28:48;;;;;;;15.32;7.50;;;5.30;95.10;;;;;;5031828;28;20025;-57
2022/12/21 07:31:18;;;;;;;16.88;7.60;;;5.30;95.20;;;;;;5032975;28;20033;-56
2022/12/21 07:33:44;;;;;;;48.92;9.50;;;5.30;95.20;;;;;;5015346;28;20516;-57
2022/12/21 07:36:14;;;;;;;36.67;8.95;;;5.30;95.20;;;;;;5031981;28;20117;-56
2022/12/21 07:38:41;;;;;;;;;;;5.30;95.20;;;;;;5034263;28;20083;-57
2022/12/21 07:41:13;;;;;;;21.13;9.05;;;5.30;95.30;;;;;;5036986;28;20340;-56
2022/12/21 07:43:41;;;;;;;37.20;10.07;;;5.30;95.30;;;;;;5055096;28;20033;-57
2022/12/21 07:46:08;;;;;;;26.38;10.57;;;5.30;95.20;;;;;;5056486;28;20017;-57
2022/12/21 07:48:35;;;;;;;23.60;8.77;;;5.40;95.30;;;;;;5045508;28;20049;-57
2022/12/21 07:51:03;;;;;;;12.05;7.88;;;5.40;95.30;;;;;;5035505;28;20443;-57
2022/12/21 07:53:31;;;;;;;22.92;9.10;;;5.40;95.30;;;;;;5041488;28;20044;-57
2022/12/21 07:56:07;;;;;;;28.60;9.50;;;5.40;95.30;;;;;;5056538;28;20148;-57
2022/12/21 07:58:34;;;;;;;54.63;9.35;;;5.40;95.30;;;;;;5054143;28;20414;-57
2022/12/21 08:01:11;;;;;;;20.25;9.18;;;5.50;95.30;;;;;;5028431;28;20455;-55
2022/12/21 08:03:39;;;;;;;23.85;9.45;;;5.50;95.30;;;;;;5031066;28;20033;-56
2022/12/21 08:06:06;;;;;;;20.63;8.90;;;5.50;95.40;;;;;;5034704;28;20435;-57
2022/12/21 08:08:37;;;;;;;27.50;10.85;;;5.50;95.30;;;;;;5035193;28;20030;-54
2022/12/21 08:11:11;;;;;;;23.02;11.65;;;5.50;95.30;;;;;;5036142;28;20040;-55
2022/12/21 08:13:41;;;;;;;24.63;10.57;;;5.60;95.40;;;;;;5035146;28;20036;-57
2022/12/21 08:16:10;;;;;;;27.40;9.50;;;5.60;95.40;;;;;;5018777;28;20358;-57
2022/12/21 08:18:37;;;;;;;18.85;9.57;;;5.60;95.40;;;;;;5034809;28;20021;-56
2022/12/21 08:21:04;;;;;;;18.23;10.70;;;5.60;95.40;;;;;;5055572;28;20104;-54
2022/12/21 08:23:31;;;;;;;18.02;8.70;;;5.70;95.40;;;;;;5055721;28;20032;-52
2022/12/21 08:26:05;;;;;;;24.33;9.45;;;5.70;95.30;;;;;;5055360;28;20049;-55
2022/12/21 08:28:33;;;;;;;23.55;9.57;;;5.70;95.40;;;;;;5015987;28;20017;-56
2022/12/21 08:31:18;;;;;;;24.27;8.85;;;5.70;95.40;;;;;;5015981;28;20482;-53
2022/12/21 08:33:45;;;;;;;14.95;8.95;;;5.70;95.40;;;;;;5019336;28;20036;-55
2022/12/21 08:36:15;;;;;;;22.35;9.15;;;5.80;95.40;;;;;;5034599;28;20366;-56
2022/12/21 08:38:42;;;;;;;13.23;8.02;;;5.80;95.40;;;;;;5034820;28;20449;-56
2022/12/21 08:41:10;;;;;;;19.55;10.02;;;5.80;95.30;;;;;;5035857;28;20045;-56
2022/12/21 08:43:38;;;;;;;17.00;8.57;;;5.80;95.40;;;;;;5034518;28;20025;-55
2022/12/21 08:46:09;;;;;;;18.00;9.02;;;5.80;95.40;;;;;;5035610;28;20086;-54
2022/12/21 08:48:37;;;;;;;13.35;8.90;;;5.90;95.40;;;;;;5017584;28;20041;-56
2022/12/21 08:51:07;;;;;;;20.88;9.45;;;5.90;95.40;;;;;;5034291;28;20105;-56
2022/12/21 08:53:35;;;;;;;20.38;9.90;;;5.90;95.30;;;;;;5035099;28;20171;-56
2022/12/21 08:56:06;;;;;;;22.50;9.82;;;5.90;95.40;;;;;;5035392;28;20025;-56
2022/12/21 08:58:34;;;;;;;16.20;8.90;;;5.90;95.30;;;;;;5035546;28;20025;-55
2022/12/21 09:01:02;;;;;;;16.95;9.43;;;5.90;95.30;;;;;;5035053;28;20029;-52
2022/12/21 09:03:30;;;;;;;31.65;10.48;;;5.90;95.40;;;;;;5040096;28;20059;-54
2022/12/21 09:05:59;;;;;;;15.57;10.25;;;5.90;95.40;;;;;;5055192;28;20114;-52
2022/12/21 09:08:28;;;;;;;31.43;11.00;;;6.00;95.40;;;;;;5054144;28;20037;-55
2022/12/21 09:11:07;;;;;;;20.63;10.30;;;6.00;95.40;;;;;;5054582;28;20349;-53
2022/12/21 09:13:37;;;;;;;21.98;9.73;;;6.10;95.40;;;;;;5036783;28;20581;-54
2022/12/21 09:16:10;;;;;;;;;;;6.10;95.40;;;;;;5035297;28;20600;-51
2022/12/21 09:18:38;;;;;;;20.10;8.82;;;6.10;95.40;;;;;;5035382;28;19909;-54
2022/12/21 09:21:05;;;;;;;21.08;10.75;;;6.10;95.30;;;;;;5034939;28;20029;-50
2022/12/21 09:23:32;;;;;;;29.45;10.40;;;6.10;95.30;;;;;;5033774;28;20030;-53
2022/12/21 09:25:59;;;;;;;15.55;9.43;;;6.10;95.40;;;;;;5033450;28;20060;-52
2022/12/21 09:28:27;;;;;;;31.60;9.95;;;6.20;95.40;;;;;;5034721;28;20442;-53
2022/12/21 09:30:54;;;;;;;31.42;10.10;;;6.20;95.30;;;;;;5034560;28;20122;-50
2022/12/21 09:33:23;;;;;;;23.30;10.45;;;6.20;95.40;;;;;;5034238;28;20052;-54
2022/12/21 09:35:52;;;;;;;32.33;10.93;;;6.30;95.40;;;;;;5034534;28;20021;-51
2022/12/21 09:38:19;;;;;;;51.33;12.05;;;6.30;95.40;;;;;;5034427;28;20670;-53
2022/12/21 09:40:46;;;;;;;32.03;11.45;;;6.40;95.50;;;;;;5034605;28;20393;-50
2022/12/21 09:43:42;;;;;;;27.10;12.07;;;6.40;95.40;;;;;;5047663;28;20029;-53
2022/12/21 09:46:11;;;;;;;33.22;11.65;;;6.50;95.40;;;;;;5054609;28;20036;-54
2022/12/21 09:48:58;;;;;;;25.67;12.20;;;6.50;95.40;;;;;;5053636;28;20058;-53
2022/12/21 09:51:28;;;;;;;28.77;11.52;;;6.60;95.40;;;;;;5038436;28;20033;-52
2022/12/21 09:54:16;;;;;;;29.30;11.98;;;6.60;95.40;;;;;;5033421;28;20076;-53
2022/12/21 09:56:51;;;;;;;33.50;12.57;;;6.60;95.40;;;;;;5034181;28;20332;-50
2022/12/21 09:59:20;;;;;;;27.15;12.02;;;6.70;95.40;;;;;;5034302;28;20017;-52
2022/12/21 10:01:55;;;;;;;31.02;12.65;;;6.80;95.50;;;;;;5031988;28;20060;-49
2022/12/21 10:04:54;;;;;;;30.48;14.07;;;6.90;95.50;;;;;;5045920;28;20454;-49
2022/12/21 10:07:47;;;;;;;36.28;13.30;;;7.00;95.50;;;;;;5052502;28;20064;-47
2022/12/21 10:10:22;;;;;;;26.92;12.77;;;7.00;95.40;;;;;;5043749;28;20025;-51
2022/12/21 10:13:01;;;;;;;28.73;12.73;;;7.00;95.50;;;;;;5032857;28;20030;-50
2022/12/21 10:16:12;;;;;;;39.25;15.35;;;7.00;95.50;;;;;;5046044;28;20426;-47
2022/12/21 10:18:41;;;;;;;34.75;14.70;;;7.10;95.40;;;;;;5053851;28;20211;-48
2022/12/21 10:21:33;;;;;;;33.28;16.17;;;7.00;95.40;;;;;;5053805;28;20021;-52
2022/12/21 10:24:02;;;;;;;37.90;16.08;;;7.20;95.50;;;;;;5014333;28;20025;-46
2022/12/21 10:26:33;;;;;;;34.90;15.43;;;7.20;95.50;;;;;;5026961;28;20032;-50
2022/12/21 10:29:09;;;;;;;44.20;16.88;;;7.20;95.50;;;;;;5053736;28;20029;-49
2022/12/21 10:31:54;;;;;;;43.03;16.77;;;7.20;95.50;;;;;;5052087;28;20049;-52
2022/12/21 10:34:43;;;;;;;37.65;15.60;;;7.30;95.50;;;;;;5053494;28;20035;-49
2022/12/21 10:37:14;;;;;;;42.75;16.35;;;7.40;95.50;;;;;;5051978;28;20032;-46
2022/12/21 10:39:40;;;;;;;42.08;17.48;;;7.40;95.60;;;;;;5053226;28;20025;-46
2022/12/21 10:42:27;;;;;;;49.33;16.88;;;7.40;95.50;;;;;;5052124;28;20031;-47
2022/12/21 10:44:56;;;;;;;56.13;17.30;;;7.40;95.50;;;;;;5013814;28;20049;-47
2022/12/21 10:47:23;;;;;;;46.85;17.15;;;7.40;95.50;;;;;;5012663;28;20037;-49
2022/12/21 10:50:11;;;;;;;43.90;17.55;;;7.50;95.60;;;;;;5025857;28;20518;-44
2022/12/21 10:52:45;;;;;;;46.63;17.65;;;7.60;95.60;;;;;;5033494;28;20037;-46
2022/12/21 10:55:22;;;;;;;42.38;17.70;;;7.70;95.60;;;;;;5033064;28;20354;-46
2022/12/21 10:58:16;;;;;;;49.50;19.25;;;7.80;95.60;;;;;;5047270;28;20135;-47
2022/12/21 11:01:17;;;;;;;46.53;18.20;;;7.80;95.60;;;;;;5053621;28;20036;-47
2022/12/21 11:03:43;;;;;;;46.13;17.55;;;7.80;95.50;;;;;;5046394;28;20045;-44
2022/12/21 11:06:28;;;;;;;53.28;19.15;;;7.80;95.50;;;;;;5032930;28;20112;-47
2022/12/21 11:08:55;;;;;;;53.72;18.05;;;7.80;95.50;;;;;;5046851;28;20378;-44
2022/12/21 11:11:37;;;;;;;53.20;18.27;;;7.90;95.50;;;;;;5053520;28;20386;-43
2022/12/21 11:14:14;;;;;;;50.90;18.20;;;7.90;95.50;;;;;;5056855;28;20025;-46
2022/12/21 11:16:42;;;;;;;50.03;18.70;;;8.00;95.50;;;;;;5059610;28;20441;-47
2022/12/21 11:19:13;;;;;;;48.55;18.33;;;8.00;95.40;;;;;;5058460;28;20035;-44
2022/12/21 11:21:56;;;;;;;47.42;18.80;;;7.90;95.30;;;;;;5059648;28;20115;-44
2022/12/21 11:24:39;;;;;;;46.10;17.73;;;7.90;95.30;;;;;;5050055;28;20029;-48
2022/12/21 11:27:10;;;;;;;49.42;17.00;;;7.90;95.30;;;;;;5039417;28;20034;-46
2022/12/21 11:29:50;;;;;;;42.88;17.40;;;7.90;95.30;;;;;;5038347;28;20108;-44
2022/12/21 11:32:18;;;;;;;63.42;21.88;;;7.90;95.30;;;;;;5043512;28;20025;-43
2022/12/21 11:35:06;;;;;;;56.97;18.23;;;7.90;95.30;;;;;;5058510;28;20039;-44
2022/12/21 11:37:44;;;;;;;47.97;19.92;;;8.00;95.20;;;;;;5059569;28;20040;-45
2022/12/21 11:40:25;;;;;;;53.97;21.52;;;8.00;95.20;;;;;;5045424;28;20071;-45
2022/12/21 11:42:59;;;;;;;56.67;19.77;;;8.00;95.10;;;;;;5040444;28;20462;-45
2022/12/21 11:45:46;;;;;;;53.05;20.40;;;7.90;95.10;;;;;;5059479;28;20108;-44
2022/12/21 11:48:18;;;;;;;49.28;21.17;;;8.00;95.10;;;;;;5058692;28;20358;-44
2022/12/21 11:51:01;;;;;;;48.85;20.45;;;7.90;94.90;;;;;;5058026;28;20029;-46
2022/12/21 11:54:06;;;;;;;48.03;19.52;;;7.80;94.90;;;;;;5059598;28;20028;-46
2022/12/21 11:56:59;;;;;;;47.08;19.35;;;7.80;95.00;;;;;;5047469;28;20037;-47
2022/12/21 11:59:49;;;;;;;43.50;18.30;;;7.80;95.00;;;;;;5039353;28;20037;-46
2022/12/21 12:02:20;;;;;;;50.33;21.60;;;7.90;95.00;;;;;;5019487;28;20068;-45
2022/12/21 12:04:55;;;;;;;51.15;21.30;;;7.90;94.90;;;;;;5019744;28;20026;-46
2022/12/21 12:07:43;;;;;;;50.83;19.85;;;7.90;94.90;;;;;;5035518;28;20045;-43
2022/12/21 12:10:27;;;;;;;44.13;20.30;;;7.90;94.80;;;;;;5044929;28;20553;-46
2022/12/21 12:13:24;;;;;;;53.10;21.85;;;7.90;94.80;;;;;;5058570;28;20420;-46
2022/12/21 12:16:33;;;;;;;50.50;21.05;;;7.90;94.70;;;;;;5019571;28;20064;-43
2022/12/21 12:19:18;;;;;;;48.40;19.77;;;7.90;94.60;;;;;;5027953;28;20034;-44
2022/12/21 12:22:21;;;;;;;51.80;21.55;;;7.80;94.60;;;;;;5048053;28;20375;-45
2022/12/21 12:25:12;;;;;;;50.63;19.38;;;7.90;94.70;;;;;;5056602;28;20021;-44
2022/12/21 12:27:44;;;;;;;45.13;22.00;;;8.00;94.70;;;;;;5052061;28;20028;-45
2022/12/21 12:30:22;;;;;;;45.35;20.30;;;8.10;94.80;;;;;;5035804;28;20029;-44
2022/12/21 12:33:19;;;;;;;45.42;20.50;;;8.10;94.60;;;;;;5051648;28;20044;-44
2022/12/21 12:36:19;;;;;;;52.85;20.58;;;8.10;94.50;;;;;;5054386;28;20017;-44
2022/12/21 12:39:11;;;;;;;43.92;21.00;;;8.10;94.30;;;;;;5055844;28;20339;-45
2022/12/21 12:42:05;;;;;;;49.50;20.00;;;8.00;94.20;;;;;;5054168;28;20410;-45
2022/12/21 12:45:13;;;;;;;52.08;21.80;;;7.90;94.20;;;;;;5054753;28;20021;-44
2022/12/21 12:48:11;;;;;;;54.55;20.83;;;7.90;94.10;;;;;;5055399;28;20454;-45
2022/12/21 12:51:00;;;;;;;43.40;20.60;;;8.00;94.20;;;;;;5053989;28;20083;-47
2022/12/21 12:53:44;;;;;;;49.75;21.70;;;7.90;94.10;;;;;;5055011;28;20025;-48
2022/12/21 12:56:31;;;;;;;45.47;22.27;;;7.90;94.10;;;;;;5053947;28;20041;-44
2022/12/21 12:59:15;;;;;;;39.97;21.13;;;7.90;94.00;;;;;;5054390;28;20373;-49
2022/12/21 13:01:56;;;;;;;49.22;20.90;;;7.90;93.90;;;;;;5053390;28;20136;-46
2022/12/21 13:04:59;;;;;;;44.45;21.38;;;7.80;93.90;;;;;;5037957;28;20393;-44
2022/12/21 13:07:43;;;;;;;50.20;23.02;;;7.80;93.90;;;;;;5055278;28;20056;-46
2022/12/21 13:10:29;;;;;;;40.40;20.73;;;7.70;93.90;;;;;;5052522;28;20033;-46
2022/12/21 13:13:06;;;;;;;48.53;20.85;;;7.70;93.90;;;;;;5055080;28;20017;-43
2022/12/21 13:15:54;;;;;;;41.63;19.23;;;7.60;93.70;;;;;;5052615;28;20017;-43
2022/12/21 13:18:29;;;;;;;44.65;21.88;;;7.60;93.70;;;;;;5055031;28;20021;-44
2022/12/21 13:20:58;;;;;;;43.85;20.23;;;7.50;93.70;;;;;;5052686;28;20491;-44
2022/12/21 13:23:54;;;;;;;43.15;21.58;;;7.40;93.60;;;;;;5054031;28;20028;-45
2022/12/21 13:26:27;;;;;;;38.65;19.60;;;7.40;93.60;;;;;;5014830;28;20037;-45
2022/12/21 13:29:15;;;;;;;48.97;21.80;;;7.40;93.60;;;;;;5015138;28;20036;-44
2022/12/21 13:31:43;;;;;;;44.00;21.70;;;7.40;93.70;;;;;;5013960;28;20034;-43